Hlavní strana
METAR-TAF:

METAR-TAF

Letiště :

Paraguaná, Venezuela

zeměpisná šířka: 11-47N, zeměpisná délka: 070-09W, výška: 23 m

METAR: chybějící

Čas: 09:50 (13:50 UTC)

Předpověď počasí

Zpráva byla vytvořena před 3 hodinami a 50 minutami, v 10:00 UTC
Předpověď platná od 26 v 12 UTC do 27 v 12 UTC
Východní vítr 9 kt
Viditelnost 10 km a více
Polojasno ve výšce 1600 ft
Změna
od 26 v 12 UTC do 26 v 16 UTC
Západní vítr 10 kt
Viditelnost 10 km a více
Polojasno ve výšce 1600 ft
slabé mrholení

TAF: SVJC 261000Z 2612/2712 09009KT 9999 SCT016 TX33/19Z TN25/08Z BECMG 2612/2616 28010KT 9999 -DZ SCT016

Stav a předpovědi počasí z více než 4 000 letišť (zprávy METAR a TAF).

Červené a žluté tečky na mapě představují dostupné meteorologické stanice.

Když kurzor umístíte na tečku, zobrazí se název stanice.

Pak kliknutím zobrazíte stav a předpověď počasí.

Chcete-li změnit mapu, kliknutím na zelené tlačítko se znaménkem +mapu přiblížíte, kliknutím na zelené tlačítko se znaménkem – mapu oddálíte a kliknutím na zelené šipky přejdete na sousední mapy.


METAR-TAF: